Rejestracja

Wszystkie dane podawane są w czasie UTC za wyjątkiem miejsc gdzie jest jednoznacznie podane, że jest inaczej. Dane podawane w serwisie mają charakter informacyjny!!!
Informacje w sprawie dostępu do serwisu pod numerem tel. +48 22 68-28-138, CA MON (828-138)!!!
W związku z zaplanowanymi pracami konserwacyjnymi, mogą wystąpić utrudnienia z dostępem do domeny meteo.mil.pl . W przypadku wystąpienia problemów prosimy skorzystać z adresów IP: serwis www - http://91.208.93.188 , serwer pocztowy - https://91.208.93.189

Aktualna Pogoda
 
Pogoda w Polsce
0°C Szczecin 1°C Suwałki 0°C Warszawa -1°C Poznan
-2°C Opole -1°C Kraków 0°C Rzeszów
Więcej miast w Polsce

Pogoda w Europie
0°C Berlin 2°C Paryz 0°C Bruksela -0°C Oslo
-3°C Praga 0°C Zagrzeb
Więcej miast w Europie

Metary wojskowe test
METAR EPBC 310500Z 27006KT 1000 SN OVC002 00/00 Q0974=
METAR EPCE 310500Z 23003KT 6000 OVC005 00/M00 Q0972 RMK 001 096 8/8=
METAR EPDA 310500Z 21005KT 7000 OVC029 01/M00 Q0973 RMK 006 094 8/8=
METAR EPDE 310500Z 27006KT 1200 SN BR BKN004 OVC012 M00/M01 Q0974 RMK M004 098 8/6=
METAR EPIR 310500Z 21010KT 6000 SCT028 BKN150 M01/M02 Q0975 RMK M008 093 6/3=
METAR EPKS 310500Z 20004KT 9999 BKN020 M01/M03 Q0975 RMK M012 088 7/7=
METAR EPLK 310500Z 26005KT 9999 FEW020 BKN100 M01/M03 Q0976 RMK M014 088 7/2=
METAR EPLY 310500Z 26006KT 9999 FEW034 OVC060 M01/M01 Q0976 RMK M006 094 8/2=
METAR EPMB 310500Z 20004KT 3000 BR SCT007 OVC015 M00/M00 Q0974 RMK M002 098 8/4=
METAR EPMI 310500Z 18004KT 4000 BR BKN004 BKN010 M01/M01 Q0973 RMK M007 094 7/6=
METAR EPMM 310500Z 27004KT 0600 SN FG BKN002 OVC010 00/M00 Q0973 RMK 001 097 8/6=
METAR EPOK 310500Z 24006KT 9999 OVC025 01/00 Q0973 RMK 007 096 8/8=
METAR EPPR 310500Z AUTO 22002KT ///024 00/00 Q0973 RMK 005 098=
METAR EPPW 310500Z 21004KT 8000 SCT033 BKN100 M01/M03 Q0975 RMK M014 089 5/3=
METAR EPSN 310500Z 18006KT 4000 -SN BR BKN003 OVC010 00/M01 Q0972 RMK 000 093 8/5=
METAR EPTM 310500Z 27004KT 4000 BR BKN004 OVC011 M01/M01 Q0975 RMK M009 097 8/5=


 
Informacje ogólne
Pogoda
Warszawa
Temperatura: 0.2°C
Wiatr: 4.0 m/s
Ciśnienie: 975.4 hPa
Zjawiska: Śnieg
Temp. max: 2.3 °C
Temp. min: 0.2 °C


Dane astronomiczne
Warszawa:
Dzien: 09:02 h
Noc: 14:58 h


Using HW VSP powered by HW group.

Prawa autorskie©2007 SSH SZ RP. Wszelkie prawa zastrzeżone.